Time;durP1;ratioP1;P1;durP2;ratioP2;P2;SDS_P1;SDS_P2;PMS_P1;PMS_P2;Temp;Humidity;BMP_temperature;BMP_pressure;BME280_temperature;BME280_humidity;BME280_pressure;Samples;Min_cycle;Max_cycle;Signal;HPM_P1;HPM_P2
2022/11/06 00:03:22;;;;;;;4.43;3.35;;;;;;;;;;10149427;28;20048;-67
2022/11/06 00:08:26;;;;;;;4.32;3.33;;;;;;;;;;10149145;28;20069;-68
2022/11/06 00:13:19;;;;;;;4.45;3.40;;;;;;;;;;10148891;28;20052;-68
2022/11/06 00:18:13;;;;;;;5.38;3.67;;;;;;;;;;10151259;28;20047;-68
2022/11/06 00:23:08;;;;;;;3.90;3.38;;;;;;;;;;10149204;28;21119;-68
2022/11/06 00:28:02;;;;;;;4.68;3.33;;;;;;;;;;10148245;28;20072;-68
2022/11/06 00:32:56;;;;;;;6.40;3.65;;;;;;;;;;10148039;28;20049;-68
2022/11/06 00:37:50;;;;;;;5.63;4.32;;;;;;;;;;10148299;28;20044;-68
2022/11/06 00:42:44;;;;;;;5.03;3.95;;;;;;;;;;10152030;28;20054;-68
2022/11/06 00:47:38;;;;;;;5.45;3.35;;;;;;;;;;10147791;28;20056;-68
2022/11/06 00:52:32;;;;;;;3.72;3.40;;;;;;;;;;10147896;28;20053;-68
2022/11/06 00:57:26;;;;;;;6.88;2.75;;;;;;;;;;10147310;28;20495;-68
2022/11/06 01:02:20;;;;;;;3.20;2.88;;;;;;;;;;10154284;28;20056;-68
2022/11/06 01:07:13;;;;;;;5.97;3.17;;;;;;;;;;10146977;28;20044;-67
2022/11/06 01:12:07;;;;;;;3.08;2.78;;;;;;;;;;10146901;28;20127;-68
2022/11/06 01:17:06;;;;;;;4.25;3.05;;;;;;;;;;10146448;28;20462;-68
2022/11/06 01:22:00;;;;;;;3.17;2.88;;;;;;;;;;10146977;28;20048;-68
2022/11/06 01:26:54;;;;;;;2.67;2.47;;;;;;;;;;10145478;28;20057;-68
2022/11/06 01:32:08;;;;;;;3.35;2.90;;;;;;;;;;10146670;28;20560;-68
2022/11/06 01:37:01;;;;;;;5.60;2.95;;;;;;;;;;10151688;28;20044;-67
2022/11/06 01:41:55;;;;;;;16.38;2.92;;;;;;;;;;10146057;28;20424;-68
2022/11/06 01:46:48;;;;;;;3.33;2.95;;;;;;;;;;10145245;28;20084;-68
2022/11/06 01:51:47;;;;;;;3.38;2.20;;;;;;;;;;10146107;28;20052;-68
2022/11/06 01:56:40;;;;;;;3.57;3.10;;;;;;;;;;10145544;28;20106;-68
2022/11/06 02:01:33;;;;;;;3.00;2.70;;;;;;;;;;10128259;28;20040;-68
2022/11/06 02:06:28;;;;;;;7.22;3.70;;;;;;;;;;10145748;28;20054;-68
2022/11/06 02:11:22;;;;;;;4.70;2.30;;;;;;;;;;10149916;28;20470;-68
2022/11/06 02:16:21;;;;;;;5.45;3.13;;;;;;;;;;10146249;28;20454;-68
2022/11/06 02:21:23;;;;;;;4.60;3.25;;;;;;;;;;10145327;28;20103;-68
2022/11/06 02:26:28;;;;;;;2.80;2.40;;;;;;;;;;10145194;28;20048;-68
2022/11/06 02:31:25;;;;;;;4.95;3.55;;;;;;;;;;10139415;28;20407;-69
2022/11/06 02:36:24;;;;;;;4.03;3.05;;;;;;;;;;10108751;28;20132;-69
2022/11/06 02:41:39;;;;;;;2.50;2.30;;;;;;;;;;10129945;28;20060;-68
2022/11/06 02:46:36;;;;;;;2.95;2.72;;;;;;;;;;10128553;28;20061;-68
2022/11/06 02:51:32;;;;;;;3.92;2.80;;;;;;;;;;10145450;28;20048;-68
2022/11/06 02:56:28;;;;;;;5.00;2.40;;;;;;;;;;10128427;28;20131;-68
2022/11/06 03:01:27;;;;;;;4.50;2.45;;;;;;;;;;10124445;28;20056;-68
2022/11/06 03:06:27;;;;;;;3.45;2.80;;;;;;;;;;10125053;28;20136;-68
2022/11/06 03:11:25;;;;;;;7.93;4.20;;;;;;;;;;10148104;28;20048;-68
2022/11/06 03:16:38;;;;;;;5.40;3.45;;;;;;;;;;10125318;28;20139;-68
2022/11/06 03:21:40;;;;;;;4.38;2.50;;;;;;;;;;10146537;28;20052;-69
2022/11/06 03:26:36;;;;;;;2.70;2.50;;;;;;;;;;10146146;28;20048;-69
2022/11/06 03:31:38;;;;;;;2.80;2.47;;;;;;;;;;10144292;28;20072;-69
2022/11/06 03:36:43;;;;;;;3.20;2.55;;;;;;;;;;10128252;28;20070;-68
2022/11/06 03:42:03;;;;;;;2.65;2.42;;;;;;;;;;10127107;28;20075;-69
2022/11/06 03:47:13;;;;;;;3.28;2.92;;;;;;;;;;10121417;28;20040;-69
2022/11/06 03:52:21;;;;;;;3.08;2.88;;;;;;;;;;10138323;28;20148;-69
2022/11/06 03:57:21;;;;;;;2.20;2.05;;;;;;;;;;10140632;28;20081;-69
2022/11/06 04:02:15;;;;;;;6.05;2.15;;;;;;;;;;10137383;28;20040;-68
2022/11/06 04:07:12;;;;;;;4.53;2.55;;;;;;;;;;10141092;28;20041;-68
2022/11/06 04:17:22;;;;;;;2.60;2.40;;;;;;;;;;10134825;28;20045;-68
2022/11/06 04:22:53;;;;;;;3.38;3.08;;;;;;;;;;10117888;28;20060;-68
2022/11/06 04:27:58;;;;;;;5.72;3.70;;;;;;;;;;10140264;28;20476;-68
2022/11/06 04:33:11;;;;;;;5.47;2.97;;;;;;;;;;10131749;28;20064;-69
2022/11/06 04:38:11;;;;;;;3.83;3.45;;;;;;;;;;10130427;28;20089;-69
2022/11/06 04:43:09;;;;;;;3.40;2.70;;;;;;;;;;10130755;28;20048;-69
2022/11/06 04:48:03;;;;;;;3.05;2.80;;;;;;;;;;10148010;28;20048;-68
2022/11/06 04:52:58;;;;;;;3.13;2.83;;;;;;;;;;10147496;28;20049;-68
2022/11/06 04:57:51;;;;;;;4.15;3.13;;;;;;;;;;10113160;28;20056;-68
2022/11/06 05:02:45;;;;;;;4.85;3.20;;;;;;;;;;10159158;28;20052;-68
2022/11/06 05:07:38;;;;;;;4.72;4.03;;;;;;;;;;10147223;28;20495;-68
2022/11/06 05:12:33;;;;;;;4.70;4.15;;;;;;;;;;10158094;28;20056;-68
2022/11/06 05:17:27;;;;;;;5.00;4.50;;;;;;;;;;10146896;28;20079;-68
2022/11/06 05:27:39;;;;;;;5.22;4.65;;;;;;;;;;10147122;28;20045;-68
2022/11/06 05:32:33;;;;;;;5.30;4.43;;;;;;;;;;10146976;28;20076;-68
2022/11/06 05:37:29;;;;;;;5.18;4.30;;;;;;;;;;10148151;28;20041;-68
2022/11/06 05:42:24;;;;;;;7.32;5.45;;;;;;;;;;10135882;28;20064;-68
2022/11/06 05:47:17;;;;;;;4.45;4.05;;;;;;;;;;10146256;28;20450;-67
2022/11/06 05:52:10;;;;;;;4.65;4.25;;;;;;;;;;10146771;28;20084;-67
2022/11/06 05:57:03;;;;;;;5.35;3.72;;;;;;;;;;10145535;28;20045;-67
2022/11/06 06:01:58;;;;;;;3.50;3.20;;;;;;;;;;10143769;28;20045;-70
2022/11/06 06:06:51;;;;;;;29.80;17.70;;;;;;;;;;10162474;28;20060;-68
2022/11/06 06:11:45;;;;;;;4.25;2.90;;;;;;;;;;10170403;28;20493;-68
2022/11/06 06:16:39;;;;;;;3.53;2.90;;;;;;;;;;10174398;28;20076;-68
2022/11/06 06:21:35;;;;;;;5.05;2.97;;;;;;;;;;10159072;28;20048;-68
2022/11/06 06:26:29;;;;;;;2.90;2.28;;;;;;;;;;10146255;28;20067;-69
2022/11/06 06:31:22;;;;;;;2.35;2.15;;;;;;;;;;10149337;28;20411;-69
2022/11/06 06:36:16;;;;;;;2.25;2.08;;;;;;;;;;10146713;28;20060;-69
2022/11/06 06:41:09;;;;;;;2.45;2.15;;;;;;;;;;10147131;28;20056;-69
2022/11/06 06:46:05;;;;;;;4.93;2.35;;;;;;;;;;10145153;28;20435;-70
2022/11/06 06:50:59;;;;;;;3.13;2.00;;;;;;;;;;10141346;28;20446;-69
2022/11/06 06:55:53;;;;;;;3.20;2.42;;;;;;;;;;10141943;28;20045;-70
2022/11/06 07:00:45;;;;;;;2.75;2.50;;;;;;;;;;10142175;28;20136;-71
2022/11/06 07:05:40;;;;;;;4.38;2.50;;;;;;;;;;10126402;28;20091;-70
2022/11/06 07:10:35;;;;;;;3.47;2.63;;;;;;;;;;10142669;28;20155;-72
2022/11/06 07:15:29;;;;;;;3.42;2.67;;;;;;;;;;10139421;28;20333;-70
2022/11/06 07:20:24;;;;;;;2.92;2.63;;;;;;;;;;10140901;28;20500;-68
2022/11/06 07:25:22;;;;;;;2.83;2.45;;;;;;;;;;10141019;28;20056;-70
2022/11/06 07:30:15;;;;;;;3.50;2.40;;;;;;;;;;10141706;28;20079;-73
2022/11/06 07:35:11;;;;;;;3.45;2.67;;;;;;;;;;10137648;28;20532;-70
2022/11/06 07:40:08;;;;;;;4.70;2.92;;;;;;;;;;10144661;28;20072;-68
2022/11/06 07:45:02;;;;;;;6.50;2.83;;;;;;;;;;10136561;28;20056;-68
2022/11/06 07:49:55;;;;;;;2.95;2.65;;;;;;;;;;10138405;28;20467;-68
2022/11/06 07:54:49;;;;;;;3.65;3.35;;;;;;;;;;10139298;28;20063;-67
2022/11/06 07:59:43;;;;;;;4.25;2.90;;;;;;;;;;10120883;28;20156;-67
2022/11/06 08:04:37;;;;;;;5.35;3.03;;;;;;;;;;10121125;28;20045;-68
2022/11/06 08:09:31;;;;;;;4.10;3.53;;;;;;;;;;10122031;28;20037;-67
2022/11/06 08:14:27;;;;;;;6.97;3.95;;;;;;;;;;10119499;28;20049;-68
2022/11/06 08:19:20;;;;;;;8.43;3.67;;;;;;;;;;10135472;28;20056;-68
2022/11/06 08:24:13;;;;;;;4.72;3.45;;;;;;;;;;10132788;28;20076;-68
2022/11/06 08:29:14;;;;;;;7.90;4.00;;;;;;;;;;10135316;28;20512;-69
2022/11/06 08:34:07;;;;;;;3.30;2.97;;;;;;;;;;10119382;28;20131;-69
2022/11/06 08:39:00;;;;;;;4.32;3.40;;;;;;;;;;10135300;28;20083;-75
2022/11/06 08:43:55;;;;;;;3.22;2.92;;;;;;;;;;10146736;28;20066;-75
2022/11/06 08:48:48;;;;;;;4.15;2.30;;;;;;;;;;10134692;28;20127;-79
2022/11/06 08:53:42;;;;;;;2.47;2.28;;;;;;;;;;10141132;28;20064;-72
2022/11/06 08:58:35;;;;;;;2.55;2.13;;;;;;;;;;10132856;28;20399;-68
2022/11/06 09:03:28;;;;;;;4.40;3.50;;;;;;;;;;10137855;28;20060;-66
2022/11/06 09:08:23;;;;;;;3.85;2.75;;;;;;;;;;10123641;28;20049;-67
2022/11/06 09:13:16;;;;;;;7.00;2.65;;;;;;;;;;10137275;28;20048;-68
2022/11/06 09:18:11;;;;;;;5.00;2.70;;;;;;;;;;10143424;28;20423;-69
2022/11/06 09:23:05;;;;;;;3.58;2.83;;;;;;;;;;10143370;28;20128;-69
2022/11/06 09:27:59;;;;;;;4.07;2.97;;;;;;;;;;10148529;28;20049;-69
2022/11/06 09:33:00;;;;;;;6.93;3.50;;;;;;;;;;10109371;28;20049;-68
2022/11/06 09:38:01;;;;;;;4.82;3.60;;;;;;;;;;10138847;28;20125;-68
2022/11/06 09:43:38;;;;;;;5.32;3.42;;;;;;;;;;10144646;28;20060;-68
2022/11/06 09:48:58;;;;;;;4.63;3.40;;;;;;;;;;10144882;28;20056;-68
2022/11/06 09:54:00;;;;;;;7.57;4.18;;;;;;;;;;10143941;28;20462;-68
2022/11/06 09:58:54;;;;;;;7.38;3.90;;;;;;;;;;10150207;28;20058;-68
2022/11/06 10:03:52;;;;;;;5.88;3.65;;;;;;;;;;10145182;28;20052;-72
2022/11/06 10:08:45;;;;;;;7.70;4.18;;;;;;;;;;10127709;28;20132;-69
2022/11/06 10:14:15;;;;;;;7.22;4.35;;;;;;;;;;10119455;28;20139;-68
2022/11/06 10:19:18;;;;;;;5.60;3.50;;;;;;;;;;10132845;28;20546;-68
2022/11/06 10:24:23;;;;;;;4.60;3.00;;;;;;;;;;10133159;28;20102;-68
2022/11/06 10:29:24;;;;;;;5.10;3.83;;;;;;;;;;10096011;28;20090;-68
2022/11/06 10:34:46;;;;;;;3.97;3.47;;;;;;;;;;10132102;28;20148;-68
2022/11/06 10:39:41;;;;;;;4.90;3.83;;;;;;;;;;10133332;28;20056;-68
2022/11/06 10:44:35;;;;;;;4.85;3.75;;;;;;;;;;10135190;28;20131;-68
2022/11/06 10:50:00;;;;;;;5.15;3.97;;;;;;;;;;10132101;28;20103;-68
2022/11/06 10:55:22;;;;;;;3.63;3.03;;;;;;;;;;10121881;28;20060;-68
2022/11/06 11:00:16;;;;;;;4.97;3.97;;;;;;;;;;10132816;28;20068;-68
2022/11/06 11:05:15;;;;;;;5.57;4.45;;;;;;;;;;10151334;28;20101;-68
2022/11/06 11:10:23;;;;;;;5.18;3.42;;;;;;;;;;10138809;28;20049;-68
2022/11/06 11:15:22;;;;;;;7.20;3.47;;;;;;;;;;10141414;28;20056;-68
2022/11/06 11:20:34;;;;;;;5.40;3.92;;;;;;;;;;10140683;28;20049;-68
2022/11/06 11:25:28;;;;;;;5.40;3.50;;;;;;;;;;10141149;28;20099;-68
2022/11/06 11:30:28;;;;;;;3.80;2.95;;;;;;;;;;10145054;28;20071;-68
2022/11/06 11:35:28;;;;;;;8.00;3.97;;;;;;;;;;10137989;28;20048;-68
2022/11/06 11:40:34;;;;;;;13.30;10.85;;;;;;;;;;10137981;28;20052;-68
2022/11/06 11:45:27;;;;;;;4.85;3.67;;;;;;;;;;10145551;28;20044;-69
2022/11/06 11:50:33;;;;;;;4.60;4.03;;;;;;;;;;10143171;28;20075;-70
2022/11/06 11:55:28;;;;;;;4.20;2.85;;;;;;;;;;10148454;28;20045;-69
2022/11/06 12:00:29;;;;;;;4.32;2.97;;;;;;;;;;10136209;28;20124;-69
2022/11/06 12:05:44;;;;;;;7.47;4.60;;;;;;;;;;10137786;28;20051;-68
2022/11/06 12:10:39;;;;;;;6.57;3.28;;;;;;;;;;10130929;28;20064;-68
2022/11/06 12:16:00;;;;;;;4.40;3.20;;;;;;;;;;10124980;28;20053;-67
2022/11/06 12:21:06;;;;;;;3.90;2.85;;;;;;;;;;10146668;28;20052;-68
2022/11/06 12:26:08;;;;;;;6.97;3.08;;;;;;;;;;10134496;28;20122;-69
2022/11/06 12:31:08;;;;;;;5.15;3.10;;;;;;;;;;10120892;28;20052;-71
2022/11/06 12:36:06;;;;;;;4.13;2.90;;;;;;;;;;10132831;28;20047;-71
2022/11/06 12:41:11;;;;;;;3.63;2.97;;;;;;;;;;10110842;28;20506;-67
2022/11/06 12:46:22;;;;;;;5.63;3.80;;;;;;;;;;10133809;28;20497;-69
2022/11/06 12:51:19;;;;;;;3.03;2.47;;;;;;;;;;10135627;28;20073;-68
2022/11/06 12:56:15;;;;;;;4.28;2.92;;;;;;;;;;10145276;28;20537;-68
2022/11/06 13:01:33;;;;;;;4.78;2.55;;;;;;;;;;10141698;28;20044;-68
2022/11/06 13:07:00;;;;;;;5.20;3.72;;;;;;;;;;10141784;28;20049;-68
2022/11/06 13:12:28;;;;;;;4.00;2.50;;;;;;;;;;10124419;28;20041;-68
2022/11/06 13:17:30;;;;;;;4.72;3.05;;;;;;;;;;10032907;28;20135;-68
2022/11/06 13:22:50;;;;;;;12.55;3.65;;;;;;;;;;10117290;28;20052;-68
2022/11/06 13:27:43;;;;;;;6.20;3.00;;;;;;;;;;10116986;28;20076;-68
2022/11/06 13:32:37;;;;;;;3.92;2.65;;;;;;;;;;10121350;28;20048;-70
2022/11/06 13:37:37;;;;;;;3.35;2.28;;;;;;;;;;10120333;28;20037;-68
2022/11/06 13:42:40;;;;;;;3.72;2.55;;;;;;;;;;10117147;28;20132;-67
2022/11/06 13:47:40;;;;;;;6.97;3.00;;;;;;;;;;10106125;28;20060;-67
2022/11/06 13:52:42;;;;;;;5.70;2.33;;;;;;;;;;10121986;28;20045;-69
2022/11/06 13:57:57;;;;;;;3.25;2.47;;;;;;;;;;10143354;28;20811;-68
2022/11/06 14:03:19;;;;;;;5.57;2.75;;;;;;;;;;10139787;28;20144;-67
2022/11/06 14:08:22;;;;;;;3.45;2.28;;;;;;;;;;10138655;28;20114;-68
2022/11/06 14:13:15;;;;;;;3.90;3.15;;;;;;;;;;10133991;28;20090;-68
2022/11/06 14:18:17;;;;;;;3.50;2.58;;;;;;;;;;10127489;28;20496;-67
2022/11/06 14:23:29;;;;;;;4.50;3.20;;;;;;;;;;10123152;28;20099;-68
2022/11/06 14:28:31;;;;;;;5.50;3.67;;;;;;;;;;10133333;28;20484;-68
2022/11/06 14:33:39;;;;;;;6.10;2.75;;;;;;;;;;10136916;28;20099;-68
2022/11/06 14:38:34;;;;;;;6.15;3.70;;;;;;;;;;10151460;28;20074;-68
2022/11/06 14:43:54;;;;;;;4.53;3.53;;;;;;;;;;10126986;28;20043;-68
2022/11/06 14:49:14;;;;;;;5.22;3.05;;;;;;;;;;10126599;28;20055;-68
2022/11/06 14:54:20;;;;;;;7.90;3.15;;;;;;;;;;10110052;28;20060;-68
2022/11/06 14:59:20;;;;;;;6.72;3.08;;;;;;;;;;10141000;28;20083;-68
2022/11/06 15:04:19;;;;;;;4.28;2.78;;;;;;;;;;10131446;28;20052;-69
2022/11/06 15:09:12;;;;;;;;;;;;;;;;;;10128529;28;20556;-68
2022/11/06 15:14:05;;;;;;;3.38;2.70;;;;;;;;;;10135228;28;20338;-68
2022/11/06 15:19:05;;;;;;;7.18;3.10;;;;;;;;;;10121124;28;20090;-68
2022/11/06 15:24:05;;;;;;;6.60;3.00;;;;;;;;;;10123029;28;20063;-68
2022/11/06 15:29:00;;;;;;;6.28;3.10;;;;;;;;;;10104453;28;20044;-69
2022/11/06 15:33:57;;;;;;;5.68;3.67;;;;;;;;;;10132470;28;20135;-68
2022/11/06 15:38:50;;;;;;;6.38;3.90;;;;;;;;;;10144092;28;20403;-68
2022/11/06 15:43:45;;;;;;;6.72;4.43;;;;;;;;;;10141565;28;20068;-68
2022/11/06 15:48:39;;;;;;;8.25;5.45;;;;;;;;;;10126521;28;20060;-68
2022/11/06 15:53:32;;;;;;;5.45;4.47;;;;;;;;;;10120532;28;20045;-68
2022/11/06 15:58:35;;;;;;;5.50;4.00;;;;;;;;;;10137829;28;20075;-68
2022/11/06 16:03:50;;;;;;;8.20;3.97;;;;;;;;;;10141507;28;20045;-69
2022/11/06 16:08:44;;;;;;;8.52;4.10;;;;;;;;;;10137454;28;20094;-70
2022/11/06 16:13:38;;;;;;;8.02;3.97;;;;;;;;;;10125560;28;20160;-70
2022/11/06 16:18:39;;;;;;;7.88;4.28;;;;;;;;;;10142705;28;20057;-69
2022/11/06 16:23:47;;;;;;;7.35;3.72;;;;;;;;;;10114397;28;20060;-69
2022/11/06 16:28:45;;;;;;;6.03;4.60;;;;;;;;;;10142971;28;20457;-68
2022/11/06 16:33:39;;;;;;;6.37;4.70;;;;;;;;;;10145117;28;20041;-69
2022/11/06 16:38:42;;;;;;;9.35;5.72;;;;;;;;;;10138589;28;20353;-67
2022/11/06 16:43:35;;;;;;;7.28;5.10;;;;;;;;;;10122027;28;20056;-67
2022/11/06 16:48:33;;;;;;;10.70;6.15;;;;;;;;;;10118260;28;20084;-67
2022/11/06 16:53:29;;;;;;;11.43;6.30;;;;;;;;;;10138626;28;20056;-67
2022/11/06 16:58:22;;;;;;;7.45;6.43;;;;;;;;;;10142382;28;20064;-67
2022/11/06 17:03:19;;;;;;;10.95;6.28;;;;;;;;;;10120503;28;20503;-67
2022/11/06 17:08:35;;;;;;;10.63;6.47;;;;;;;;;;10117642;28;20080;-68
2022/11/06 17:13:31;;;;;;;10.45;7.57;;;;;;;;;;10142363;28;20507;-69
2022/11/06 17:18:28;;;;;;;12.70;9.50;;;;;;;;;;10158655;28;20079;-68
2022/11/06 17:23:22;;;;;;;12.90;8.48;;;;;;;;;;10162061;28;20068;-68
2022/11/06 17:28:17;;;;;;;11.25;9.20;;;;;;;;;;10161186;28;20070;-68
2022/11/06 17:33:13;;;;;;;12.30;9.48;;;;;;;;;;10162053;28;20135;-69
2022/11/06 17:38:11;;;;;;;19.27;9.23;;;;;;;;;;10159203;28;20461;-69
2022/11/06 17:43:05;;;;;;;15.13;9.52;;;;;;;;;;10157879;28;20062;-68
2022/11/06 17:47:58;;;;;;;16.45;9.60;;;;;;;;;;10160568;28;20414;-68
2022/11/06 17:52:51;;;;;;;18.23;8.77;;;;;;;;;;10165162;28;20543;-69
2022/11/06 17:57:46;;;;;;;14.48;9.95;;;;;;;;;;10151008;28;20064;-69
2022/11/06 18:02:39;;;;;;;11.90;7.95;;;;;;;;;;10161416;28;20131;-69
2022/11/06 18:07:52;;;;;;;12.77;10.43;;;;;;;;;;10163378;28;20036;-68
2022/11/06 18:12:50;;;;;;;16.98;11.98;;;;;;;;;;10164283;28;20047;-68
2022/11/06 18:17:43;;;;;;;20.42;15.52;;;;;;;;;;10164337;28;20049;-68
2022/11/06 18:22:37;;;;;;;12.07;10.55;;;;;;;;;;10162218;28;20441;-69
2022/11/06 18:27:31;;;;;;;13.32;8.48;;;;;;;;;;10171669;28;20056;-68
2022/11/06 18:32:25;;;;;;;12.02;9.60;;;;;;;;;;10157378;28;20123;-68
2022/11/06 18:37:19;;;;;;;13.45;9.80;;;;;;;;;;10147769;28;20040;-68
2022/11/06 18:42:13;;;;;;;16.02;10.57;;;;;;;;;;10148565;28;20051;-68
2022/11/06 18:47:07;;;;;;;13.00;8.85;;;;;;;;;;10137566;28;20515;-68
2022/11/06 18:52:00;;;;;;;13.73;8.68;;;;;;;;;;10141023;28;20719;-67
2022/11/06 18:56:54;;;;;;;13.75;9.32;;;;;;;;;;10140840;28;20044;-68
2022/11/06 19:01:48;;;;;;;13.73;9.85;;;;;;;;;;10126223;28;20127;-74
2022/11/06 19:06:41;;;;;;;16.55;10.45;;;;;;;;;;10126242;28;20082;-70
2022/11/06 19:11:35;;;;;;;13.55;9.57;;;;;;;;;;10122217;28;20124;-72
2022/11/06 19:16:30;;;;;;;12.40;8.63;;;;;;;;;;10121634;28;20501;-72
2022/11/06 19:21:26;;;;;;;14.68;11.13;;;;;;;;;;10120467;28;20561;-72
2022/11/06 19:26:24;;;;;;;20.23;12.27;;;;;;;;;;10127964;28;20055;-71
2022/11/06 19:31:27;;;;;;;19.02;13.90;;;;;;;;;;10128645;28;20040;-68
2022/11/06 19:36:21;;;;;;;19.13;11.38;;;;;;;;;;10128763;28;20070;-71
2022/11/06 19:41:14;;;;;;;11.48;10.02;;;;;;;;;;10134628;28;20083;-71
2022/11/06 19:46:08;;;;;;;18.25;12.25;;;;;;;;;;10123963;28;20107;-73
2022/11/06 19:51:01;;;;;;;18.20;12.15;;;;;;;;;;10118858;28;20095;-75
2022/11/06 19:55:55;;;;;;;13.30;11.70;;;;;;;;;;10129340;28;20049;-73
2022/11/06 20:00:49;;;;;;;15.32;11.25;;;;;;;;;;10136793;28;20534;-69
2022/11/06 20:05:42;;;;;;;16.00;11.90;;;;;;;;;;10124936;28;20055;-72
2022/11/06 20:10:36;;;;;;;15.15;10.75;;;;;;;;;;10145957;28;20049;-69
2022/11/06 20:15:29;;;;;;;15.75;12.55;;;;;;;;;;10122823;28;20124;-67
2022/11/06 20:20:23;;;;;;;16.88;11.85;;;;;;;;;;10141021;28;20131;-67
2022/11/06 20:25:17;;;;;;;17.35;12.40;;;;;;;;;;10141704;28;20060;-69
2022/11/06 20:30:10;;;;;;;16.50;12.68;;;;;;;;;;10123635;28;20567;-67
2022/11/06 20:35:08;;;;;;;22.55;16.02;;;;;;;;;;10138597;28;20048;-70
2022/11/06 20:40:01;;;;;;;18.75;15.15;;;;;;;;;;10141485;28;20080;-67
2022/11/06 20:44:56;;;;;;;17.98;12.93;;;;;;;;;;10134891;28;20499;-67
2022/11/06 20:49:51;;;;;;;17.85;12.27;;;;;;;;;;10135329;28;20067;-69
2022/11/06 20:54:45;;;;;;;19.48;13.40;;;;;;;;;;10143326;28;20056;-67
2022/11/06 20:59:40;;;;;;;22.95;10.13;;;;;;;;;;10140489;28;20442;-69
2022/11/06 21:04:34;;;;;;;21.92;14.65;;;;;;;;;;10132364;28;20056;-69
2022/11/06 21:09:28;;;;;;;24.45;15.52;;;;;;;;;;10146262;28;20056;-69
2022/11/06 21:14:22;;;;;;;20.08;11.93;;;;;;;;;;10139348;28;20480;-68
2022/11/06 21:19:16;;;;;;;15.13;12.15;;;;;;;;;;10136869;28;20450;-68
2022/11/06 21:24:10;;;;;;;10.65;9.07;;;;;;;;;;10140268;28;20075;-69
2022/11/06 21:29:06;;;;;;;15.13;9.38;;;;;;;;;;10143563;28;20388;-69
2022/11/06 21:34:00;;;;;;;11.70;8.00;;;;;;;;;;10143163;28;20048;-69
2022/11/06 21:38:57;;;;;;;11.68;9.52;;;;;;;;;;10142113;28;20098;-69
2022/11/06 21:43:50;;;;;;;14.40;9.65;;;;;;;;;;10140104;28;20044;-71
2022/11/06 21:48:44;;;;;;;12.70;9.95;;;;;;;;;;10138092;28;20049;-70
2022/11/06 21:58:54;;;;;;;11.60;8.73;;;;;;;;;;10139290;28;20057;-68
2022/11/06 22:03:48;;;;;;;17.70;11.27;;;;;;;;;;10137174;28;20102;-69
2022/11/06 22:08:43;;;;;;;12.52;9.32;;;;;;;;;;10130756;28;20040;-69
2022/11/06 22:13:40;;;;;;;11.73;9.32;;;;;;;;;;10138767;28;20045;-69
2022/11/06 22:18:34;;;;;;;11.75;10.00;;;;;;;;;;10133719;28;20124;-69
2022/11/06 22:23:28;;;;;;;17.58;11.63;;;;;;;;;;10138109;28;20074;-69
2022/11/06 22:28:22;;;;;;;12.02;10.07;;;;;;;;;;10137606;28;20136;-70
2022/11/06 22:33:17;;;;;;;11.95;9.05;;;;;;;;;;10139618;28;20081;-67
2022/11/06 22:38:11;;;;;;;10.55;9.45;;;;;;;;;;10141440;28;20407;-68
2022/11/06 22:43:03;;;;;;;13.43;9.15;;;;;;;;;;10139941;28;20098;-68
2022/11/06 22:47:58;;;;;;;11.52;7.80;;;;;;;;;;10141734;28;20090;-70
2022/11/06 22:52:51;;;;;;;8.73;7.82;;;;;;;;;;10132547;28;20056;-69
2022/11/06 22:57:45;;;;;;;9.98;7.13;;;;;;;;;;10148255;28;20526;-68
2022/11/06 23:02:39;;;;;;;9.15;8.02;;;;;;;;;;10148369;28;20763;-70
2022/11/06 23:07:32;;;;;;;12.27;8.68;;;;;;;;;;10131791;28;20388;-70
2022/11/06 23:12:27;;;;;;;8.57;7.30;;;;;;;;;;10143745;28;20440;-70
2022/11/06 23:17:20;;;;;;;12.88;8.27;;;;;;;;;;10146220;28;20458;-69
2022/11/06 23:27:26;;;;;;;10.10;8.68;;;;;;;;;;10142050;28;20073;-68
2022/11/06 23:32:20;;;;;;;20.98;10.48;;;;;;;;;;10144294;28;20506;-69
2022/11/06 23:37:14;;;;;;;14.27;9.15;;;;;;;;;;10146466;28;20041;-68
2022/11/06 23:42:07;;;;;;;9.75;8.40;;;;;;;;;;10146895;28;20040;-69
2022/11/06 23:47:01;;;;;;;11.30;8.15;;;;;;;;;;10146462;28;20514;-69
2022/11/06 23:51:54;;;;;;;12.60;7.47;;;;;;;;;;10149527;28;20051;-69
2022/11/06 23:56:49;;;;;;;8.98;6.80;;;;;;;;;;10138449;28;20051;-68
